Time;durP1;ratioP1;P1;durP2;ratioP2;P2;SDS_P1;SDS_P2;PMS_P1;PMS_P2;Temp;Humidity;BMP_temperature;BMP_pressure;BME280_temperature;BME280_humidity;BME280_pressure;Samples;Min_cycle;Max_cycle;Signal;HPM_P1;HPM_P2
2022/11/28 00:02:13;;;;;;;36.10;7.07;;;;;;;11.34;82.90;101384.31;10381537;28;96894;-80
2022/11/28 00:07:16;;;;;;;65.57;8.90;;;;;;;11.34;82.62;101371.13;10381658;28;97676;-81
2022/11/28 00:12:20;;;;;;;31.17;6.10;;;;;;;11.21;83.12;101364.44;10383049;28;98283;-81
2022/11/28 00:17:24;;;;;;;39.55;7.80;;;;;;;11.25;82.76;101362.59;10399526;28;96819;-81
2022/11/28 00:22:28;;;;;;;33.03;7.55;;;;;;;11.15;82.36;101364.59;10380936;28;96921;-80
2022/11/28 00:27:33;;;;;;;178.70;13.70;;;;;;;11.15;82.68;101359.31;10380967;28;96821;-81
2022/11/28 00:32:38;;;;;;;46.45;8.40;;;;;;;11.19;82.70;101363.63;10375665;28;96893;-80
2022/11/28 00:37:41;;;;;;;220.63;17.83;;;;;;;11.09;83.77;101361.25;10380703;28;98508;-82
2022/11/28 00:42:45;;;;;;;133.00;12.52;;;;;;;11.05;83.74;101365.69;10380147;28;96865;-82
2022/11/28 00:47:49;;;;;;;76.90;8.80;;;;;;;10.98;84.25;101356.19;10376850;28;96695;-82
2022/11/28 00:52:52;;;;;;;48.33;7.72;;;;;;;11.05;83.60;101349.00;10378479;28;97129;-81
2022/11/28 00:57:56;;;;;;;60.08;9.02;;;;;;;10.94;83.14;101357.16;10377828;28;96967;-81
2022/11/28 01:03:00;;;;;;;53.35;7.15;;;;;;;10.92;83.07;101358.13;10379187;28;99163;-81
2022/11/28 01:08:04;;;;;;;61.40;8.20;;;;;;;10.91;83.27;101364.25;10379687;28;96807;-81
2022/11/28 01:13:07;;;;;;;86.18;9.40;;;;;;;10.95;83.84;101360.66;10380117;28;96854;-81
2022/11/28 01:18:12;;;;;;;59.63;8.00;;;;;;;10.98;83.28;101360.59;10379660;28;97367;-81
2022/11/28 01:23:17;;;;;;;89.00;8.98;;;;;;;10.93;83.25;101375.63;10377916;28;96788;-81
2022/11/28 01:28:20;;;;;;;;;;;;;;;10.96;83.42;101373.78;10380676;28;97615;-81
2022/11/28 01:33:24;;;;;;;212.30;14.15;;;;;;;10.72;83.39;101384.00;10378061;28;97623;-81
2022/11/28 01:38:28;;;;;;;82.38;8.98;;;;;;;10.76;83.05;101390.94;10375554;28;96876;-81
2022/11/28 01:43:31;;;;;;;27.40;5.90;;;;;;;10.77;83.25;101369.84;10380312;28;96658;-82
2022/11/28 01:48:39;;;;;;;43.78;6.05;;;;;;;10.74;83.40;101377.81;10378440;28;98731;-81
2022/11/28 01:53:46;;;;;;;75.20;7.57;;;;;;;10.79;83.37;101398.78;10378088;28;96826;-81
2022/11/28 01:58:54;;;;;;;16.60;4.80;;;;;;;10.75;83.21;101384.81;10384102;28;97737;-81
2022/11/28 02:04:00;;;;;;;43.97;6.68;;;;;;;10.69;83.33;101378.81;10381338;28;96952;-81
2022/11/28 02:09:03;;;;;;;79.97;8.00;;;;;;;10.66;82.50;101377.09;10377465;28;97261;-82
2022/11/28 02:14:17;;;;;;;48.83;5.88;;;;;;;10.61;82.92;101375.50;10381251;28;97239;-82
2022/11/28 02:20:05;;;;;;;79.05;7.43;;;;;;;10.50;83.36;101374.84;10385755;28;96949;-82
2022/11/28 02:25:30;;;;;;;131.00;10.70;;;;;;;10.53;82.88;101383.56;10385314;28;96984;-83
2022/11/28 02:30:44;;;;;;;73.65;7.13;;;;;;;10.45;83.25;101387.25;10397277;27;98365;-82
2022/11/28 02:36:02;;;;;;;47.30;5.43;;;;;;;10.38;83.04;101381.25;10424142;27;97264;-82
2022/11/28 02:41:12;;;;;;;83.35;7.82;;;;;;;10.39;83.29;101375.09;10424864;27;97411;-82
2022/11/28 02:46:23;;;;;;;206.20;14.57;;;;;;;10.39;82.93;101368.94;10394569;28;96965;-83
2022/11/28 02:51:37;;;;;;;39.63;5.55;;;;;;;10.33;83.29;101379.63;10424298;27;96736;-83
2022/11/28 02:56:50;;;;;;;205.27;15.52;;;;;;;10.37;83.66;101376.03;10423959;28;96769;-83
2022/11/28 03:01:55;;;;;;;219.88;15.10;;;;;;;10.38;82.98;101376.00;10442559;27;96945;-83
2022/11/28 03:07:11;;;;;;;69.15;7.00;;;;;;;10.31;83.44;101369.13;10431027;27;97187;-83
2022/11/28 03:12:25;;;;;;;148.32;10.55;;;;;;;10.23;83.34;101385.06;10426985;27;96817;-83
2022/11/28 03:17:41;;;;;;;91.72;8.32;;;;;;;10.23;83.45;101387.69;10417125;28;96935;-83
2022/11/28 03:23:02;;;;;;;58.05;5.57;;;;;;;10.18;83.35;101396.56;10425140;27;96793;-83
2022/11/28 03:28:12;;;;;;;55.13;5.95;;;;;;;10.20;83.30;101387.75;10424147;27;96844;-83
2022/11/28 03:33:20;;;;;;;102.13;8.98;;;;;;;10.26;82.92;101392.88;10412766;28;96805;-83
2022/11/28 03:38:33;;;;;;;78.38;6.75;;;;;;;10.20;82.92;101390.38;10422831;28;98098;-83
2022/11/28 03:43:43;;;;;;;74.53;6.20;;;;;;;10.20;83.37;101407.91;10425459;27;96817;-83
2022/11/28 03:48:51;;;;;;;167.05;12.38;;;;;;;10.13;83.29;101395.78;10421178;27;97260;-83
2022/11/28 03:54:08;;;;;;;119.53;9.70;;;;;;;10.01;83.25;101396.91;10422513;27;98403;-83
2022/11/28 03:59:18;;;;;;;119.82;9.32;;;;;;;10.03;83.29;101402.13;10423153;27;97840;-83
2022/11/28 04:04:29;;;;;;;44.42;5.30;;;;;;;10.10;82.97;101402.00;10420686;27;97985;-83
2022/11/28 04:09:45;;;;;;;24.73;4.07;;;;;;;10.19;82.66;101401.78;10423899;27;96870;-83
2022/11/28 04:15:21;;;;;;;20.38;4.28;;;;;;;10.08;82.98;101402.91;10427121;27;98993;-85
2022/11/28 04:58:07;;;;;;;;;;;;;;;;;;;;;
2022/11/28 05:10:19;;;;;;;48.90;5.38;;;;;;;9.79;82.80;101408.72;9970683;28;97565;-84
2022/11/28 05:15:29;;;;;;;55.45;5.85;;;;;;;9.86;82.28;101435.75;10206670;28;96914;-84
2022/11/28 05:27:38;;;;;;;35.33;4.80;;;;;;;9.87;82.23;101440.09;9892581;29;97160;-84
2022/11/28 05:32:48;;;;;;;52.72;5.05;;;;;;;9.88;82.13;101444.50;10061922;28;96904;-85
2022/11/28 06:14:32;;;;;;;12.52;3.13;;;;;;;9.91;82.08;101470.72;9861467;29;97598;-83
2022/11/28 06:19:49;;;;;;;37.13;4.05;;;;;;;9.80;81.97;101493.69;10198591;28;97081;-83
2022/11/28 06:25:08;;;;;;;39.88;4.60;;;;;;;9.80;82.38;101497.19;10285079;28;99159;-83
2022/11/28 07:01:17;;;;;;;9.50;3.13;;;;;;;9.96;82.17;101509.19;10006089;28;97123;-83
2022/11/28 07:06:28;;;;;;;13.90;3.45;;;;;;;10.05;81.53;101522.19;10135099;28;97679;-84
2022/11/28 07:11:54;;;;;;;;;;;;;;;;;;;;;
2022/11/28 07:17:35;;;;;;;9.63;3.20;;;;;;;10.01;82.23;101525.75;10222313;28;97723;-89
2022/11/28 07:35:21;;;;;;;7.22;3.38;;;;;;;10.61;79.98;101513.22;10477086;27;97835;-88
2022/11/28 07:40:25;;;;;;;16.38;3.63;;;;;;;10.55;80.32;101509.84;10473285;27;97429;-89
2022/11/28 07:45:29;;;;;;;6.07;2.80;;;;;;;10.38;80.87;101518.06;10481577;27;97288;-86
2022/11/28 07:50:57;;;;;;;15.98;3.85;;;;;;;10.36;81.00;101529.50;10472787;27;96870;-82
2022/11/28 07:56:03;;;;;;;32.72;4.30;;;;;;;10.24;81.44;101536.75;10479048;27;98389;-90
2022/11/28 08:01:16;;;;;;;46.60;5.10;;;;;;;10.23;81.33;101542.00;10465845;27;98883;-91
2022/11/28 08:06:25;;;;;;;7.50;2.90;;;;;;;10.10;80.92;101535.25;10462097;27;98764;-82
2022/11/28 08:11:30;;;;;;;20.38;3.78;;;;;;;10.10;81.49;101546.63;10468956;27;97584;-83
2022/11/28 08:16:33;;;;;;;55.35;5.97;;;;;;;10.01;82.04;101545.91;10469430;27;99228;-83
2022/11/28 08:21:40;;;;;;;39.30;4.70;;;;;;;10.12;82.17;101546.59;10463271;27;98597;-82
2022/11/28 08:26:44;;;;;;;21.25;3.53;;;;;;;10.10;82.17;101554.53;10466416;27;97527;-82
2022/11/28 08:31:47;;;;;;;22.48;4.43;;;;;;;10.06;82.35;101560.72;10471588;27;97700;-79
2022/11/28 08:36:52;;;;;;;6.43;2.95;;;;;;;10.35;81.81;101572.50;10444292;27;100347;-80
2022/11/28 08:41:58;;;;;;;23.85;5.50;;;;;;;10.27;81.58;101556.84;10443436;27;99666;-82
2022/11/28 08:47:01;;;;;;;10.00;3.40;;;;;;;10.31;82.19;101550.66;10437433;27;98046;-87
2022/11/28 08:52:07;;;;;;;82.78;39.25;;;;;;;10.29;81.67;101562.97;10441934;27;99590;-79
2022/11/28 08:57:11;;;;;;;79.32;9.55;;;;;;;10.41;81.40;101562.75;10446712;27;97347;-80
2022/11/28 09:02:14;;;;;;;35.28;5.35;;;;;;;10.36;81.76;101567.22;10438731;27;99026;-81
2022/11/28 09:07:19;;;;;;;37.78;6.85;;;;;;;10.43;81.89;101568.84;10444256;27;98834;-80
2022/11/28 09:12:22;;;;;;;29.45;7.25;;;;;;;10.51;81.80;101579.22;10441721;27;98703;-79
2022/11/28 09:17:25;;;;;;;14.43;7.10;;;;;;;10.43;81.70;101586.38;10435185;27;99585;-87
2022/11/28 09:41:44;;;;;;;29.45;5.82;;;;;;;10.36;81.60;101611.94;10389875;27;96594;-76
2022/11/28 09:46:49;;;;;;;28.60;5.55;;;;;;;10.39;81.89;101626.78;10378963;27;98502;-75
2022/11/28 09:51:58;;;;;;;39.88;5.82;;;;;;;10.41;82.60;101636.41;10396031;27;96879;-75
2022/11/28 09:57:08;;;;;;;53.30;7.05;;;;;;;10.49;82.28;101633.66;10399071;27;97018;-78
2022/11/28 10:02:24;;;;;;;10.75;4.55;;;;;;;10.45;82.57;101617.06;10391865;27;98583;-78
2022/11/28 10:07:37;;;;;;;10.77;4.15;;;;;;;10.55;82.33;101612.47;10404682;27;98532;-77
2022/11/28 10:12:51;;;;;;;113.78;10.50;;;;;;;10.76;81.95;101614.72;10414847;27;97547;-78
2022/11/28 10:18:07;;;;;;;180.05;12.68;;;;;;;10.97;81.54;101615.16;10392080;27;97195;-78
2022/11/28 10:23:16;;;;;;;21.98;4.47;;;;;;;11.39;82.19;101627.53;10406494;27;96849;-78
2022/11/28 10:28:23;;;;;;;4.50;3.30;;;;;;;11.38;81.27;101624.91;10401655;27;97753;-80
2022/11/28 10:33:31;;;;;;;7.95;3.40;;;;;;;11.59;80.39;101627.09;10401841;27;96771;-77
2022/11/28 10:38:35;;;;;;;8.32;5.78;;;;;;;12.24;78.79;101630.81;10398656;27;99074;-77
2022/11/28 10:43:46;;;;;;;9.80;5.20;;;;;;;12.38;79.69;101628.72;10388670;27;96721;-80
2022/11/28 10:48:54;;;;;;;18.95;11.35;;;;;;;12.86;78.88;101632.75;10384384;27;98002;-77
2022/11/28 10:54:18;;;;;;;12.20;6.78;;;;;;;13.19;78.19;101633.63;10368804;28;98913;-77
2022/11/28 10:59:34;;;;;;;9.60;5.67;;;;;;;13.14;76.98;101630.22;10376481;28;97708;-77
2022/11/28 11:04:39;;;;;;;7.82;5.28;;;;;;;13.15;77.67;101624.03;10365206;28;98535;-76
2022/11/28 11:09:43;;;;;;;6.97;4.77;;;;;;;13.42;76.73;101620.59;10365466;28;97300;-76
2022/11/28 11:14:48;;;;;;;7.72;5.43;;;;;;;13.72;76.15;101618.78;10371961;28;96774;-78
2022/11/28 11:19:51;;;;;;;8.57;5.38;;;;;;;13.78;75.43;101618.63;10358979;28;98417;-75
2022/11/28 15:03:53;;;;;;;13.10;4.00;;;;;;;17.35;65.19;101435.31;10388782;27;99064;-78
2022/11/28 15:09:04;;;;;;;12.15;3.33;;;;;;;16.90;66.41;101426.88;10358754;28;99382;-79
2022/11/28 15:14:19;;;;;;;12.13;3.58;;;;;;;16.44;67.29;101419.28;10361620;28;98777;-78
2022/11/28 15:19:25;;;;;;;;;;;;;;;16.05;68.07;101423.69;10350940;28;98733;-80
2022/11/28 15:24:31;;;;;;;10.00;4.10;;;;;;;16.13;68.64;101426.88;10350110;28;97696;-82
2022/11/28 15:29:35;;;;;;;13.70;4.57;;;;;;;15.87;69.01;101428.84;10353321;28;97399;-82
2022/11/28 15:34:40;;;;;;;21.40;6.03;;;;;;;15.74;69.70;101440.91;10353065;28;97644;-81
2022/11/28 15:39:47;;;;;;;14.82;4.93;;;;;;;15.77;70.44;101429.28;10354710;28;98653;-80
2022/11/28 15:44:55;;;;;;;15.60;4.30;;;;;;;15.55;70.03;101433.78;10355822;28;97671;-84
2022/11/28 15:50:02;;;;;;;11.63;4.15;;;;;;;15.52;70.16;101444.53;10360013;28;98680;-84
2022/11/28 15:55:15;;;;;;;12.98;4.28;;;;;;;15.36;70.20;101430.16;10359505;28;97930;-83
2022/11/28 16:00:20;;;;;;;9.70;3.67;;;;;;;15.09;70.62;101429.44;10364266;28;98924;-85
2022/11/28 16:05:25;;;;;;;13.80;4.03;;;;;;;14.82;70.84;101419.91;10354053;28;97185;-88
2022/11/28 16:10:35;;;;;;;9.85;3.95;;;;;;;14.71;70.82;101424.75;10346731;28;98749;-80
2022/11/28 16:15:39;;;;;;;15.73;4.57;;;;;;;14.53;71.65;101438.69;10308903;28;99047;-84
2022/11/28 16:20:47;;;;;;;16.05;4.97;;;;;;;14.39;71.91;101435.66;10322771;28;97880;-81
2022/11/28 16:25:59;;;;;;;9.82;4.07;;;;;;;14.34;72.27;101427.91;10335167;28;97357;-82
2022/11/28 16:31:09;;;;;;;16.13;4.57;;;;;;;14.26;72.21;101431.75;10332878;28;96917;-85
2022/11/28 16:36:23;;;;;;;15.18;4.25;;;;;;;14.18;72.80;101429.38;10328677;28;99436;-80
2022/11/28 16:41:29;;;;;;;20.50;5.28;;;;;;;14.14;73.39;101424.25;10330354;28;99157;-76
2022/11/28 16:46:36;;;;;;;14.23;4.85;;;;;;;13.95;73.80;101429.25;10313067;28;99171;-76
2022/11/28 16:51:41;;;;;;;18.10;4.85;;;;;;;13.77;74.43;101436.97;10310114;28;99191;-77
2022/11/28 16:56:44;;;;;;;;;;;;;;;13.54;76.01;101443.91;10317644;28;99020;-75
2022/11/28 17:01:51;;;;;;;22.25;8.68;;;;;;;13.54;74.43;101440.38;10322534;28;97376;-84
2022/11/28 17:07:03;;;;;;;23.70;11.77;;;;;;;13.46;74.88;101458.28;10326263;28;99329;-80
2022/11/28 17:12:13;;;;;;;20.40;10.13;;;;;;;13.45;75.11;101459.19;10320130;28;98816;-81
2022/11/28 17:17:17;;;;;;;25.52;12.43;;;;;;;13.32;75.45;101448.16;10312414;28;98245;-80
2022/11/28 17:22:24;;;;;;;24.25;11.07;;;;;;;13.00;75.49;101445.63;10314201;28;98681;-81
2022/11/28 17:27:28;;;;;;;42.45;21.67;;;;;;;12.76;76.11;101456.09;10317676;28;97820;-81
2022/11/28 17:32:31;;;;;;;38.80;17.40;;;;;;;12.73;76.77;101457.03;10312691;28;98487;-80
2022/11/28 17:37:36;;;;;;;38.30;18.67;;;;;;;12.62;77.14;101458.25;10320657;28;98923;-88
2022/11/28 17:42:41;;;;;;;29.73;12.57;;;;;;;12.49;77.07;101458.59;10312813;28;98878;-82
2022/11/28 17:47:44;;;;;;;25.95;10.35;;;;;;;12.22;77.93;101448.78;10316130;28;98835;-83
2022/11/28 17:52:49;;;;;;;26.15;10.30;;;;;;;12.19;77.39;101442.72;10344343;28;97208;-81
2022/11/28 17:57:52;;;;;;;21.85;10.48;;;;;;;12.18;77.16;101436.59;10350282;28;96996;-81
2022/11/28 18:02:56;;;;;;;21.88;10.63;;;;;;;12.20;78.06;101440.03;10297991;28;96711;-81
2022/11/28 18:08:00;;;;;;;20.17;10.10;;;;;;;12.11;77.59;101439.44;10299421;28;96571;-81
2022/11/28 18:13:04;;;;;;;24.48;11.40;;;;;;;11.95;78.34;101441.63;10298735;28;96712;-81
2022/11/28 18:18:08;;;;;;;20.02;10.25;;;;;;;11.94;77.42;101447.81;10298752;28;96641;-81
2022/11/28 18:23:13;;;;;;;20.57;9.63;;;;;;;11.93;78.20;101445.19;10297964;28;97292;-81
2022/11/28 18:28:16;;;;;;;14.17;9.40;;;;;;;11.78;78.84;101446.47;10340255;28;97202;-81
2022/11/28 18:33:21;;;;;;;19.73;7.95;;;;;;;11.62;78.24;101450.38;10339909;28;97011;-81
2022/11/28 18:38:25;;;;;;;17.25;7.53;;;;;;;11.63;78.15;101467.91;10340307;28;96787;-81
2022/11/28 18:43:28;;;;;;;19.70;8.73;;;;;;;11.57;78.70;101476.00;10339450;28;97139;-81
2022/11/28 18:48:32;;;;;;;22.70;10.18;;;;;;;11.66;78.00;101472.25;10340347;28;96710;-81
2022/11/28 18:53:36;;;;;;;27.48;11.50;;;;;;;11.68;78.58;101476.63;10338506;28;96656;-81
2022/11/28 18:58:43;;;;;;;24.23;12.85;;;;;;;11.46;79.06;101475.38;10330308;28;96943;-80
2022/11/28 19:03:49;;;;;;;25.73;15.30;;;;;;;11.40;79.26;101470.25;10338468;28;96588;-81
2022/11/28 19:08:55;;;;;;;22.88;12.77;;;;;;;11.34;79.66;101473.91;10338398;28;97175;-81
2022/11/28 19:13:58;;;;;;;26.33;11.82;;;;;;;11.44;78.83;101476.34;10337964;28;96558;-81
2022/11/28 19:19:02;;;;;;;27.88;13.07;;;;;;;11.15;79.95;101464.69;10337271;28;96943;-81
2022/11/28 19:24:09;;;;;;;22.30;11.95;;;;;;;11.18;79.07;101483.06;10337258;28;96807;-81
2022/11/28 19:29:12;;;;;;;31.35;16.70;;;;;;;11.30;78.72;101495.94;10337688;28;96704;-81
2022/11/28 19:34:17;;;;;;;28.70;15.70;;;;;;;11.36;78.93;101485.28;10336773;28;96706;-81
2022/11/28 19:39:23;;;;;;;29.13;16.15;;;;;;;11.26;79.42;101478.50;10337469;28;96603;-81
2022/11/28 19:44:28;;;;;;;24.98;14.23;;;;;;;11.30;78.74;101484.56;10337523;28;96654;-81
2022/11/28 19:49:31;;;;;;;27.43;15.87;;;;;;;11.17;78.95;101494.50;10341845;28;96782;-81
2022/11/28 19:54:35;;;;;;;29.65;15.73;;;;;;;11.22;79.31;101497.91;10324924;28;96822;-81
2022/11/28 19:59:39;;;;;;;21.80;14.40;;;;;;;11.00;79.31;101488.72;10302392;28;96745;-81
2022/11/28 20:04:42;;;;;;;26.48;15.57;;;;;;;11.02;79.30;101486.03;10303061;28;96994;-81
2022/11/28 20:09:47;;;;;;;29.15;14.38;;;;;;;10.95;79.28;101484.44;10339062;28;96730;-81
2022/11/28 20:14:51;;;;;;;24.48;13.68;;;;;;;11.01;79.29;101502.72;10343883;28;96663;-81
2022/11/28 20:19:54;;;;;;;24.67;14.05;;;;;;;11.04;79.00;101506.16;10343404;28;96777;-81
2022/11/28 20:24:58;;;;;;;24.83;14.10;;;;;;;10.85;79.90;101507.44;10342578;28;96861;-81
2022/11/28 20:30:02;;;;;;;24.75;14.02;;;;;;;10.81;79.72;101499.66;10342361;28;96875;-81
2022/11/28 20:35:08;;;;;;;22.70;11.75;;;;;;;10.78;79.69;101505.00;10342998;28;97370;-81
2022/11/28 20:40:14;;;;;;;24.88;11.65;;;;;;;10.80;80.14;101501.41;10341952;28;96967;-81
2022/11/28 20:45:17;;;;;;;22.80;12.60;;;;;;;10.88;79.53;101504.78;10342708;28;96673;-81
2022/11/28 20:50:20;;;;;;;29.13;13.60;;;;;;;11.00;80.07;101493.09;10342412;28;96889;-81
2022/11/28 20:55:25;;;;;;;30.67;13.75;;;;;;;10.93;78.86;101502.91;10342466;28;96649;-81
2022/11/28 21:00:28;;;;;;;27.23;14.60;;;;;;;10.95;79.38;101501.13;10307028;28;96814;-81
2022/11/28 21:05:34;;;;;;;32.53;16.95;;;;;;;10.96;79.56;101501.97;10300868;28;96588;-81
2022/11/28 21:10:39;;;;;;;37.60;17.27;;;;;;;10.95;78.83;101505.50;10300640;28;96810;-81
2022/11/28 21:15:44;;;;;;;32.53;16.63;;;;;;;10.94;79.53;101499.38;10301272;28;97533;-81
2022/11/28 21:20:47;;;;;;;24.00;13.95;;;;;;;10.72;80.18;101516.50;10300035;28;96617;-81
2022/11/28 21:25:52;;;;;;;24.98;13.02;;;;;;;10.40;79.87;101518.91;10321480;28;97679;-81
2022/11/28 21:30:55;;;;;;;20.47;13.57;;;;;;;10.46;79.75;101521.41;10336118;28;96700;-81
2022/11/28 21:35:59;;;;;;;22.92;13.13;;;;;;;10.45;80.07;101532.84;10300059;28;96615;-81
2022/11/28 21:41:04;;;;;;;26.37;11.50;;;;;;;10.52;79.69;101529.22;10299734;28;96539;-81
2022/11/28 21:46:07;;;;;;;59.53;14.98;;;;;;;10.42;80.38;101532.88;10301044;28;96784;-81
2022/11/28 21:51:16;;;;;;;46.03;14.95;;;;;;;10.48;80.77;101524.88;10308692;28;96587;-81
2022/11/28 21:56:21;;;;;;;54.35;15.93;;;;;;;10.67;79.93;101528.91;10299093;28;96793;-81
2022/11/28 22:01:24;;;;;;;43.05;16.00;;;;;;;10.78;79.93;101524.31;10298572;28;96651;-81
2022/11/28 22:06:28;;;;;;;183.30;24.40;;;;;;;10.88;80.05;101517.06;10299584;28;96789;-81
2022/11/28 22:11:32;;;;;;;80.18;18.00;;;;;;;10.87;80.24;101504.81;10298127;28;96682;-81
2022/11/28 22:16:35;;;;;;;228.53;25.20;;;;;;;10.61;81.06;101507.94;10298812;28;96819;-81
2022/11/28 22:21:38;;;;;;;308.02;25.77;;;;;;;10.59;80.87;101517.66;10298995;28;97040;-81
2022/11/28 22:26:59;;;;;;;78.68;15.60;;;;;;;10.64;80.26;101521.06;10328911;28;96853;-81
2022/11/28 22:32:03;;;;;;;161.80;20.02;;;;;;;10.62;80.50;101517.59;10339044;28;96826;-81
2022/11/28 22:37:06;;;;;;;203.52;21.50;;;;;;;10.64;80.98;101525.47;10338776;28;96761;-81
2022/11/28 22:42:11;;;;;;;122.28;22.08;;;;;;;10.66;80.98;101523.66;10307156;28;96994;-81
2022/11/28 22:47:14;;;;;;;243.32;25.40;;;;;;;10.62;80.93;101529.88;10298536;28;96678;-82
2022/11/28 22:52:17;;;;;;;140.07;20.40;;;;;;;10.61;81.22;101522.91;10330527;28;97018;-81
2022/11/28 22:57:22;;;;;;;77.10;17.52;;;;;;;10.70;80.91;101513.03;10320995;28;98541;-82
2022/11/28 23:02:25;;;;;;;79.57;17.63;;;;;;;10.81;81.01;101516.34;10297277;28;96698;-81
2022/11/28 23:07:29;;;;;;;48.67;15.98;;;;;;;10.79;81.23;101504.97;10297427;28;97231;-81
2022/11/28 23:12:34;;;;;;;52.85;16.42;;;;;;;10.82;80.97;101490.84;10298034;28;97045;-82
2022/11/28 23:17:39;;;;;;;73.30;15.45;;;;;;;10.89;80.45;101468.75;10297183;28;96823;-82
2022/11/28 23:22:42;;;;;;;50.07;14.77;;;;;;;10.96;80.98;101449.28;10300576;28;96804;-82
2022/11/28 23:27:47;;;;;;;63.97;16.33;;;;;;;10.86;80.65;101432.84;10341177;28;96794;-81
2022/11/28 23:32:50;;;;;;;109.93;18.10;;;;;;;10.82;80.88;101435.56;10315201;28;96849;-82
2022/11/28 23:37:53;;;;;;;59.45;22.63;;;;;;;10.74;80.94;101440.13;10303233;28;96634;-82
2022/11/28 23:42:58;;;;;;;35.58;17.42;;;;;;;10.82;80.69;101435.56;10302395;28;96770;-82
2022/11/28 23:48:01;;;;;;;73.07;27.98;;;;;;;10.78;81.49;101437.41;10302911;28;96688;-82
2022/11/28 23:53:04;;;;;;;41.67;18.13;;;;;;;10.90;81.49;101428.38;10327797;28;97878;-82
2022/11/28 23:58:09;;;;;;;45.08;18.27;;;;;;;10.91;81.40;101419.56;10343243;28;96797;-82
